createdAt,value
2017-08-07T00:01:59.384Z,3.57
2017-08-07T00:04:26.870Z,3.73
2017-08-07T00:06:54.333Z,3.83
2017-08-07T00:09:21.837Z,3.23
2017-08-07T00:11:50.051Z,3.70
2017-08-07T00:14:17.505Z,3.50
2017-08-07T00:16:45.780Z,4.53
2017-08-07T00:19:13.262Z,3.73
2017-08-07T00:21:40.711Z,3.80
2017-08-07T00:24:08.152Z,3.73
2017-08-07T00:26:35.643Z,3.80
2017-08-07T00:29:03.083Z,3.50
2017-08-07T00:31:31.089Z,3.53
2017-08-07T00:33:58.556Z,3.63
2017-08-07T00:36:26.034Z,4.13
2017-08-07T00:38:53.475Z,3.87
2017-08-07T00:41:20.957Z,3.50
2017-08-07T00:43:48.412Z,3.07
2017-08-07T00:46:15.863Z,2.93
2017-08-07T00:48:43.333Z,3.97
2017-08-07T00:51:10.807Z,3.53
2017-08-07T00:53:38.264Z,4.00
2017-08-07T00:56:05.716Z,3.93
2017-08-07T00:58:33.178Z,4.17
2017-08-07T01:01:00.636Z,3.93
2017-08-07T01:03:28.116Z,3.20
2017-08-07T01:05:55.628Z,3.40
2017-08-07T01:08:23.073Z,3.43
2017-08-07T01:10:50.537Z,4.00
2017-08-07T01:13:18.021Z,3.43
2017-08-07T01:15:45.476Z,4.60
2017-08-07T01:18:12.944Z,3.30
2017-08-07T01:20:40.396Z,3.80
2017-08-07T01:23:07.841Z,3.60
2017-08-07T01:25:36.082Z,3.77
2017-08-07T01:28:03.555Z,3.80
2017-08-07T01:30:30.995Z,3.60
2017-08-07T01:32:58.568Z,3.37
2017-08-07T01:35:26.081Z,4.50
2017-08-07T01:37:53.526Z,3.53
2017-08-07T01:40:21.004Z,3.80
2017-08-07T01:42:48.488Z,4.50
2017-08-07T01:45:15.931Z,3.93
2017-08-07T01:47:44.160Z,3.90
2017-08-07T01:50:11.636Z,3.80
2017-08-07T01:52:39.075Z,3.70
2017-08-07T01:55:07.839Z,3.80
2017-08-07T01:57:35.337Z,4.30
2017-08-07T02:00:02.803Z,4.20
2017-08-07T02:02:30.254Z,4.10
2017-08-07T02:04:57.761Z,3.87
2017-08-07T02:07:25.217Z,3.67
2017-08-07T02:09:52.686Z,3.77
2017-08-07T02:12:20.133Z,3.73
2017-08-07T02:14:47.641Z,3.80
2017-08-07T02:17:15.182Z,3.67
2017-08-07T02:19:42.635Z,3.97
2017-08-07T02:22:10.236Z,4.03
2017-08-07T02:24:37.872Z,3.87
2017-08-07T02:27:05.389Z,4.33
2017-08-07T02:29:32.844Z,4.37
2017-08-07T02:32:00.313Z,4.77
2017-08-07T02:34:27.808Z,4.50
2017-08-07T02:36:55.272Z,4.73
2017-08-07T02:39:22.743Z,3.70
2017-08-07T02:41:50.204Z,4.50
2017-08-07T02:44:19.167Z,5.33
2017-08-07T02:46:46.628Z,4.10
2017-08-07T02:49:14.121Z,5.60
2017-08-07T02:51:41.573Z,4.13
2017-08-07T02:54:09.891Z,4.73
2017-08-07T02:56:37.376Z,4.10
2017-08-07T02:59:04.834Z,5.43
2017-08-07T03:01:32.271Z,4.43
2017-08-07T03:03:59.748Z,4.37
2017-08-07T03:06:27.204Z,4.70
2017-08-07T03:08:54.660Z,4.13
2017-08-07T03:11:22.128Z,5.07
2017-08-07T03:13:49.566Z,4.53
2017-08-07T03:16:17.033Z,5.30
2017-08-07T03:18:44.515Z,4.87
2017-08-07T03:21:11.967Z,4.70
2017-08-07T03:23:40.184Z,5.00
2017-08-07T03:26:07.664Z,5.00
2017-08-07T03:28:35.136Z,4.60
2017-08-07T03:31:02.577Z,4.80
2017-08-07T03:33:30.792Z,4.77
2017-08-07T03:35:58.233Z,5.03
2017-08-07T03:38:25.691Z,5.27
2017-08-07T03:40:53.149Z,4.33
2017-08-07T03:43:20.616Z,5.20
2017-08-07T03:45:48.088Z,4.33
2017-08-07T03:48:15.586Z,4.93
2017-08-07T03:50:43.052Z,5.60
2017-08-07T03:53:10.509Z,4.90
2017-08-07T03:55:37.957Z,5.20
2017-08-07T03:58:05.432Z,5.40
2017-08-07T04:00:32.883Z,4.93
2017-08-07T04:03:01.098Z,4.77
2017-08-07T04:05:28.543Z,4.83
2017-08-07T04:07:55.986Z,5.10
2017-08-07T04:10:23.444Z,5.00
2017-08-07T04:12:50.908Z,5.03
2017-08-07T04:15:18.359Z,5.37
2017-08-07T04:17:45.822Z,5.53
2017-08-07T04:20:13.256Z,4.90
2017-08-07T04:22:40.711Z,4.90
2017-08-07T04:25:08.184Z,5.20
2017-08-07T04:27:35.615Z,5.63
2017-08-07T04:30:03.857Z,4.80
2017-08-07T04:32:31.396Z,5.57
2017-08-07T04:34:59.607Z,5.07
2017-08-07T04:37:27.097Z,5.53
2017-08-07T04:39:54.567Z,5.37
2017-08-07T04:42:22.009Z,4.73
2017-08-07T04:44:49.470Z,4.87
2017-08-07T04:47:16.941Z,5.60
2017-08-07T04:49:44.388Z,6.23
2017-08-07T04:52:11.844Z,7.30
2017-08-07T04:54:39.295Z,5.30
2017-08-07T04:57:06.762Z,5.40
2017-08-07T04:59:34.994Z,5.73
2017-08-07T05:02:02.428Z,5.47
2017-08-07T05:04:30.654Z,5.27
2017-08-07T05:06:58.136Z,5.27
2017-08-07T05:09:25.632Z,5.30
2017-08-07T05:11:53.055Z,5.53
2017-08-07T05:14:21.281Z,5.50
2017-08-07T05:16:48.773Z,5.30
2017-08-07T05:19:16.212Z,4.93
2017-08-07T05:21:43.663Z,4.83
2017-08-07T05:24:11.887Z,5.00
2017-08-07T05:26:39.379Z,5.53
2017-08-07T05:29:06.891Z,4.83
2017-08-07T05:31:34.353Z,4.83
2017-08-07T05:34:01.812Z,4.50
2017-08-07T05:36:29.258Z,4.43
2017-08-07T05:38:56.699Z,5.20
2017-08-07T05:41:24.938Z,5.40
2017-08-07T05:43:52.464Z,4.90
2017-08-07T05:46:20.679Z,4.87
2017-08-07T05:48:48.116Z,4.07
2017-08-07T05:51:15.590Z,4.27
2017-08-07T05:53:43.022Z,4.47
2017-08-07T05:56:10.452Z,4.30
2017-08-07T05:58:37.911Z,3.77
2017-08-07T06:01:05.368Z,4.47
2017-08-07T06:03:32.827Z,4.20
2017-08-07T06:06:00.273Z,4.20
2017-08-07T06:08:28.494Z,4.40
2017-08-07T06:10:55.979Z,4.40
2017-08-07T06:13:23.481Z,4.73
2017-08-07T06:15:50.934Z,4.47
2017-08-07T06:18:18.373Z,4.17
2017-08-07T06:20:45.840Z,4.17
2017-08-07T06:23:14.058Z,5.23
2017-08-07T06:25:41.512Z,4.20
2017-08-07T06:28:09.039Z,4.47
2017-08-07T06:30:36.491Z,3.73
2017-08-07T06:33:03.957Z,5.37
2017-08-07T06:35:31.428Z,4.10
2017-08-07T06:37:58.883Z,4.70
2017-08-07T06:40:26.315Z,4.10
2017-08-07T06:42:53.768Z,4.77
2017-08-07T06:45:21.231Z,4.40
2017-08-07T06:47:49.219Z,4.00
2017-08-07T06:50:16.657Z,4.10
2017-08-07T06:52:44.915Z,3.97
2017-08-07T06:55:12.363Z,5.17
2017-08-07T06:57:39.796Z,4.30
2017-08-07T07:00:07.308Z,4.20
2017-08-07T07:02:34.779Z,5.10
2017-08-07T07:05:02.235Z,3.60
2017-08-07T07:07:29.675Z,5.10
2017-08-07T07:09:57.178Z,4.30
2017-08-07T07:12:25.423Z,4.47
2017-08-07T07:14:52.865Z,4.27
2017-08-07T07:17:20.323Z,4.37
2017-08-07T07:19:48.540Z,4.30
2017-08-07T07:22:16.010Z,3.77
2017-08-07T07:24:43.499Z,4.23
2017-08-07T07:27:10.958Z,3.63
2017-08-07T07:29:38.427Z,4.20
2017-08-07T07:32:05.891Z,4.23
2017-08-07T07:34:34.103Z,4.10
2017-08-07T07:37:01.591Z,3.70
2017-08-07T07:39:29.028Z,4.03
2017-08-07T07:41:57.254Z,4.00
2017-08-07T07:44:24.695Z,3.60
2017-08-07T07:46:52.895Z,4.30
2017-08-07T07:49:20.439Z,4.20
2017-08-07T07:51:47.884Z,4.27
2017-08-07T07:54:15.320Z,4.20
2017-08-07T07:56:42.775Z,4.40
2017-08-07T07:59:10.221Z,3.93
2017-08-07T08:01:37.687Z,5.10
2017-08-07T08:04:05.162Z,3.93
2017-08-07T08:06:32.649Z,4.53
2017-08-07T08:09:00.147Z,4.30
2017-08-07T08:11:27.607Z,4.57
2017-08-07T08:13:55.083Z,4.40
2017-08-07T08:16:22.540Z,4.47
2017-08-07T08:18:50.036Z,4.27
2017-08-07T08:21:17.472Z,4.40
2017-08-07T08:23:44.930Z,5.20
2017-08-07T08:26:12.420Z,4.07
2017-08-07T08:28:39.922Z,4.97
2017-08-07T08:31:07.432Z,4.67
2017-08-07T08:33:34.879Z,4.83
2017-08-07T08:36:02.309Z,5.13
2017-08-07T08:38:29.775Z,4.27
2017-08-07T08:40:57.205Z,4.50
2017-08-07T08:43:24.655Z,4.40
2017-08-07T08:45:52.111Z,5.30
2017-08-07T08:48:19.582Z,4.50
2017-08-07T08:50:47.053Z,4.00
2017-08-07T08:53:14.495Z,5.40
2017-08-07T08:55:41.957Z,4.50
2017-08-07T08:58:09.397Z,4.60
2017-08-07T09:00:36.859Z,4.37
2017-08-07T09:03:05.074Z,4.83
2017-08-07T09:05:32.513Z,4.53
2017-08-07T09:07:59.994Z,4.60
2017-08-07T09:10:27.475Z,4.57
2017-08-07T09:12:54.924Z,4.50
2017-08-07T09:15:23.157Z,3.97
2017-08-07T09:17:50.612Z,3.67
2017-08-07T09:20:18.069Z,4.00
2017-08-07T09:22:46.368Z,4.20
2017-08-07T09:25:14.680Z,3.97
2017-08-07T09:27:42.943Z,3.63
2017-08-07T09:30:10.401Z,4.07
2017-08-07T09:32:37.846Z,3.93
2017-08-07T09:35:05.341Z,3.23
2017-08-07T09:37:32.787Z,3.90
2017-08-07T09:40:00.224Z,3.77
2017-08-07T09:42:28.482Z,3.73
2017-08-07T09:44:55.904Z,4.10
2017-08-07T09:47:23.364Z,3.90
2017-08-07T09:49:51.576Z,3.93
2017-08-07T09:52:19.031Z,3.90
2017-08-07T09:54:46.488Z,3.83
2017-08-07T09:57:13.924Z,3.67
2017-08-07T09:59:41.378Z,3.73
2017-08-07T10:02:08.828Z,4.07
2017-08-07T10:04:37.126Z,4.10
2017-08-07T10:07:04.559Z,4.07
2017-08-07T10:09:31.995Z,3.23
2017-08-07T10:11:59.471Z,3.40
2017-08-07T10:14:26.907Z,3.37
2017-08-07T10:16:54.363Z,3.80
2017-08-07T10:19:21.799Z,3.77
2017-08-07T10:21:49.397Z,3.70
2017-08-07T10:24:16.832Z,3.40
2017-08-07T10:26:44.277Z,3.83
2017-08-07T10:29:11.744Z,3.47
2017-08-07T10:31:39.220Z,3.63
2017-08-07T10:34:06.691Z,3.37
2017-08-07T10:36:34.145Z,2.90
2017-08-07T10:39:01.604Z,3.33
2017-08-07T10:41:29.039Z,3.13
2017-08-07T10:43:56.480Z,2.90
2017-08-07T10:46:23.932Z,2.40
2017-08-07T10:48:51.380Z,2.70
2017-08-07T10:51:19.598Z,3.13
2017-08-07T10:53:47.061Z,3.27
2017-08-07T10:56:14.512Z,2.67
2017-08-07T10:58:41.964Z,3.07
2017-08-07T11:01:09.393Z,3.30
2017-08-07T11:03:36.880Z,2.77
2017-08-07T11:06:04.335Z,2.70
2017-08-07T11:08:31.776Z,2.53
2017-08-07T11:11:00.003Z,3.00
2017-08-07T11:13:27.447Z,3.10
2017-08-07T11:15:55.697Z,2.70
2017-08-07T11:18:23.132Z,2.60
2017-08-07T11:20:50.603Z,3.07
2017-08-07T11:23:18.846Z,2.90
2017-08-07T11:25:46.318Z,3.00
2017-08-07T11:28:13.780Z,2.90
2017-08-07T11:30:41.345Z,2.50
2017-08-07T11:33:08.808Z,3.03
2017-08-07T11:35:36.240Z,2.53
2017-08-07T11:38:03.709Z,2.63
2017-08-07T11:40:31.138Z,2.57
2017-08-07T11:42:58.592Z,2.70
2017-08-07T11:45:26.804Z,2.33
2017-08-07T11:47:54.245Z,2.83
2017-08-07T11:50:22.461Z,2.50
2017-08-07T11:52:50.849Z,3.00
2017-08-07T11:55:19.101Z,2.70
2017-08-07T11:57:46.544Z,2.33
2017-08-07T12:00:14.014Z,2.83
2017-08-07T12:02:41.491Z,2.40
2017-08-07T12:05:08.930Z,2.77
2017-08-07T12:07:36.389Z,2.43
2017-08-07T12:10:03.846Z,2.70
2017-08-07T12:12:31.304Z,2.93
2017-08-07T12:14:58.774Z,2.20
2017-08-07T12:17:26.207Z,2.93
2017-08-07T12:19:54.444Z,2.63
2017-08-07T12:22:21.880Z,2.90
2017-08-07T12:24:49.331Z,2.70
2017-08-07T12:27:16.765Z,2.40
2017-08-07T12:29:44.243Z,2.37
2017-08-07T12:32:11.707Z,2.77
2017-08-07T12:34:39.179Z,2.40
2017-08-07T12:37:06.611Z,2.40
2017-08-07T12:39:34.086Z,2.60
2017-08-07T12:42:01.552Z,2.80
2017-08-07T12:44:29.006Z,2.70
2017-08-07T12:46:56.455Z,2.90
2017-08-07T12:49:23.884Z,3.00
2017-08-07T12:51:52.148Z,3.10
2017-08-07T12:54:19.579Z,2.67
2017-08-07T12:56:47.021Z,2.70
2017-08-07T12:59:14.554Z,2.37
2017-08-07T13:01:42.125Z,2.23
2017-08-07T13:04:09.615Z,2.50
2017-08-07T13:06:37.056Z,2.57
2017-08-07T13:09:04.543Z,2.57
2017-08-07T13:11:31.977Z,2.50
2017-08-07T13:13:59.427Z,2.40
2017-08-07T13:16:26.876Z,2.30
2017-08-07T13:18:54.355Z,2.30
2017-08-07T13:21:21.825Z,2.00
2017-08-07T13:23:49.368Z,2.27
2017-08-07T13:26:17.578Z,2.40
2017-08-07T13:28:45.064Z,2.50
2017-08-07T13:31:12.462Z,2.20
2017-08-07T13:33:39.916Z,2.13
2017-08-07T13:36:07.348Z,2.77
2017-08-07T13:38:34.795Z,2.27
2017-08-07T13:41:02.245Z,2.30
2017-08-07T13:43:29.700Z,1.97
2017-08-07T13:45:57.157Z,2.00
2017-08-07T13:48:25.355Z,2.20
2017-08-07T13:50:53.615Z,2.00
2017-08-07T13:53:21.069Z,2.27
2017-08-07T13:55:48.546Z,3.10
2017-08-07T13:58:15.969Z,2.30
2017-08-07T14:00:44.216Z,2.30
2017-08-07T14:03:11.659Z,2.40
2017-08-07T14:05:39.111Z,2.40
2017-08-07T14:08:07.334Z,2.43
2017-08-07T14:10:34.763Z,2.10
2017-08-07T14:13:02.259Z,2.10
2017-08-07T14:15:30.511Z,2.20
2017-08-07T14:17:57.957Z,2.30
2017-08-07T14:20:25.418Z,2.30
2017-08-07T14:22:52.854Z,1.90
2017-08-07T14:25:20.314Z,2.00
2017-08-07T14:27:47.749Z,2.30
2017-08-07T14:30:15.206Z,2.20
2017-08-07T14:32:42.639Z,2.43
2017-08-07T14:35:10.091Z,1.80
2017-08-07T14:37:37.581Z,2.50
2017-08-07T14:40:05.819Z,2.27
2017-08-07T14:42:34.052Z,2.80
2017-08-07T14:45:01.516Z,2.60
2017-08-07T14:47:29.106Z,3.07
2017-08-07T14:49:56.527Z,2.43
2017-08-07T14:52:23.968Z,2.20
2017-08-07T14:54:51.432Z,2.20
2017-08-07T14:57:18.879Z,2.50
2017-08-07T14:59:46.353Z,2.70
2017-08-07T15:02:13.792Z,2.50
2017-08-07T15:04:41.255Z,2.73
2017-08-07T15:07:08.751Z,2.77
2017-08-07T15:09:36.957Z,2.73
2017-08-07T15:12:04.424Z,2.50
2017-08-07T15:14:32.624Z,2.67
2017-08-07T15:17:00.076Z,2.20
2017-08-07T15:19:27.620Z,3.00
2017-08-07T15:21:55.125Z,2.90
2017-08-07T15:24:22.540Z,2.70
2017-08-07T15:26:50.010Z,2.63
2017-08-07T15:29:17.452Z,2.40
2017-08-07T15:31:44.893Z,2.77
2017-08-07T15:34:12.371Z,2.93
2017-08-07T15:36:40.232Z,2.73
2017-08-07T15:39:07.687Z,2.80
2017-08-07T15:41:35.151Z,2.83
2017-08-07T15:44:03.362Z,3.50
2017-08-07T15:46:30.831Z,2.50
2017-08-07T15:48:58.253Z,3.20
2017-08-07T15:51:25.715Z,2.80
2017-08-07T15:53:53.180Z,3.07
2017-08-07T15:56:20.619Z,2.60
2017-08-07T15:58:48.852Z,2.90
2017-08-07T16:01:16.309Z,2.80
2017-08-07T16:03:43.735Z,2.80
2017-08-07T16:06:11.202Z,2.80
2017-08-07T16:08:38.729Z,2.80
2017-08-07T16:11:06.262Z,2.70
2017-08-07T16:13:33.808Z,2.67
2017-08-07T16:16:01.247Z,3.17
2017-08-07T16:18:28.722Z,5.07
2017-08-07T16:20:56.924Z,3.43
2017-08-07T16:23:24.356Z,2.60
2017-08-07T16:25:51.897Z,2.83
2017-08-07T16:28:20.075Z,2.93
2017-08-07T16:30:47.530Z,2.10
2017-08-07T16:33:15.720Z,3.00
2017-08-07T16:35:43.936Z,2.63
2017-08-07T16:38:11.368Z,2.63
2017-08-07T16:40:38.840Z,2.70
2017-08-07T16:43:06.303Z,2.67
2017-08-07T16:45:33.741Z,2.60
2017-08-07T16:48:01.180Z,2.87
2017-08-07T16:50:29.373Z,2.50
2017-08-07T16:52:57.596Z,2.90
2017-08-07T16:55:25.027Z,2.40
2017-08-07T16:57:53.257Z,2.57
2017-08-07T17:00:20.709Z,2.80
2017-08-07T17:02:48.941Z,2.70
2017-08-07T17:05:16.376Z,2.33
2017-08-07T17:07:43.867Z,2.37
2017-08-07T17:10:11.295Z,2.70
2017-08-07T17:12:38.903Z,3.03
2017-08-07T17:15:07.969Z,2.70
2017-08-07T17:17:35.396Z,2.93
2017-08-07T17:20:03.629Z,2.73
2017-08-07T17:22:31.181Z,3.13
2017-08-07T17:24:58.658Z,2.87
2017-08-07T17:27:26.085Z,2.60
2017-08-07T17:29:53.555Z,2.73
2017-08-07T17:32:20.999Z,3.10
2017-08-07T17:34:48.437Z,2.63
2017-08-07T17:37:15.922Z,2.67
2017-08-07T17:39:43.409Z,3.70
2017-08-07T17:42:10.909Z,2.73
2017-08-07T17:44:38.350Z,2.63
2017-08-07T17:47:05.808Z,2.90
2017-08-07T17:49:33.251Z,3.10
2017-08-07T17:52:00.708Z,3.20
2017-08-07T17:54:28.161Z,2.63
2017-08-07T17:56:55.609Z,3.30
2017-08-07T17:59:23.847Z,3.60
2017-08-07T18:01:51.291Z,3.33
2017-08-07T18:04:18.725Z,3.40
2017-08-07T18:06:46.187Z,3.67
2017-08-07T18:09:13.637Z,3.20
2017-08-07T18:11:41.093Z,2.60
2017-08-07T18:14:08.562Z,3.20
2017-08-07T18:16:36.005Z,2.80
2017-08-07T18:19:03.464Z,3.33
2017-08-07T18:21:30.902Z,3.40
2017-08-07T18:23:58.356Z,3.40
2017-08-07T18:26:25.840Z,3.20
2017-08-07T18:28:53.293Z,3.47
2017-08-07T18:31:21.555Z,3.70
2017-08-07T18:33:49.030Z,3.63
2017-08-07T18:36:16.496Z,3.20
2017-08-07T18:38:43.931Z,3.80
2017-08-07T18:41:11.385Z,4.17
2017-08-07T18:43:39.589Z,3.97
2017-08-07T18:46:07.047Z,3.90
2017-08-07T18:48:35.880Z,3.80
2017-08-07T18:51:03.396Z,4.27
2017-08-07T18:53:31.020Z,3.93
2017-08-07T18:55:58.508Z,3.87
2017-08-07T18:58:26.019Z,3.60
2017-08-07T19:00:53.467Z,4.00
2017-08-07T19:03:20.916Z,4.47
2017-08-07T19:05:49.141Z,4.17
2017-08-07T19:08:16.602Z,4.10
2017-08-07T19:10:44.065Z,4.40
2017-08-07T19:13:11.508Z,4.63
2017-08-07T19:15:38.975Z,4.33
2017-08-07T19:18:06.456Z,4.47
2017-08-07T19:20:33.910Z,4.10
2017-08-07T19:23:01.363Z,4.80
2017-08-07T19:25:28.812Z,4.20
2017-08-07T19:27:56.272Z,3.80
2017-08-07T19:30:24.485Z,4.50
2017-08-07T19:32:52.562Z,4.57
2017-08-07T19:35:20.779Z,5.00
2017-08-07T19:37:48.211Z,3.90
2017-08-07T19:40:15.688Z,4.30
2017-08-07T19:42:43.145Z,7.63
2017-08-07T19:45:10.601Z,4.13
2017-08-07T19:47:38.049Z,4.83
2017-08-07T19:50:05.524Z,4.40
2017-08-07T19:52:32.948Z,5.40
2017-08-07T19:55:00.404Z,4.60
2017-08-07T19:57:27.868Z,4.30
2017-08-07T19:59:55.328Z,4.00
2017-08-07T20:02:22.774Z,5.33
2017-08-07T20:04:50.233Z,4.63
2017-08-07T20:07:17.679Z,4.37
2017-08-07T20:09:45.128Z,4.60
2017-08-07T20:12:12.571Z,5.00
2017-08-07T20:14:40.804Z,4.73
2017-08-07T20:17:08.237Z,4.20
2017-08-07T20:19:35.696Z,5.73
2017-08-07T20:22:03.214Z,5.33
2017-08-07T20:24:30.697Z,4.83
2017-08-07T20:26:58.152Z,5.67
2017-08-07T20:29:25.620Z,4.33
2017-08-07T20:31:53.856Z,5.83
2017-08-07T20:34:21.307Z,4.80
2017-08-07T20:36:48.865Z,4.17
2017-08-07T20:39:17.055Z,4.60
2017-08-07T20:41:45.273Z,4.40
2017-08-07T20:44:12.711Z,4.77
2017-08-07T20:46:40.932Z,4.47
2017-08-07T20:49:08.386Z,4.23
2017-08-07T20:51:36.701Z,10.40
2017-08-07T20:54:04.902Z,4.90
2017-08-07T20:56:32.359Z,4.20
2017-08-07T20:59:00.596Z,4.30
2017-08-07T21:01:28.040Z,3.33
2017-08-07T21:03:55.514Z,4.93
2017-08-07T21:06:22.946Z,4.70
2017-08-07T21:08:50.373Z,4.43
2017-08-07T21:11:17.827Z,4.20
2017-08-07T21:13:45.268Z,4.13
2017-08-07T21:16:12.735Z,3.90
2017-08-07T21:18:40.182Z,4.30
2017-08-07T21:21:07.630Z,4.17
2017-08-07T21:23:35.084Z,4.33
2017-08-07T21:26:03.305Z,4.10
2017-08-07T21:28:30.764Z,4.20
2017-08-07T21:30:58.223Z,4.70
2017-08-07T21:33:26.452Z,4.00
2017-08-07T21:35:53.892Z,4.23
2017-08-07T21:38:22.114Z,4.30
2017-08-07T21:40:49.584Z,4.33
2017-08-07T21:43:17.043Z,4.20
2017-08-07T21:45:44.529Z,4.33
2017-08-07T21:48:12.004Z,3.87
2017-08-07T21:50:39.449Z,4.30
2017-08-07T21:53:06.906Z,4.10
2017-08-07T21:55:34.355Z,4.67
2017-08-07T21:58:01.844Z,4.37
2017-08-07T22:00:29.311Z,3.90
2017-08-07T22:02:56.755Z,4.63
2017-08-07T22:05:24.212Z,4.80
2017-08-07T22:07:52.423Z,4.17
2017-08-07T22:10:19.902Z,4.40
2017-08-07T22:12:47.331Z,4.10
2017-08-07T22:15:15.427Z,5.47
2017-08-07T22:17:42.887Z,5.27
2017-08-07T22:20:10.326Z,4.90
2017-08-07T22:22:37.894Z,4.70
2017-08-07T22:25:06.081Z,5.60
2017-08-07T22:27:33.530Z,5.40
2017-08-07T22:30:01.762Z,5.57
2017-08-07T22:32:29.244Z,5.30
2017-08-07T22:34:56.699Z,5.40
2017-08-07T22:37:24.143Z,5.43
2017-08-07T22:39:51.595Z,5.67
2017-08-07T22:42:19.045Z,5.00
2017-08-07T22:44:46.516Z,4.77
2017-08-07T22:47:14.015Z,4.93
2017-08-07T22:49:41.479Z,5.20
2017-08-07T22:52:08.925Z,5.00
2017-08-07T22:54:36.499Z,5.03
2017-08-07T22:57:03.939Z,4.77
2017-08-07T22:59:31.405Z,5.20
2017-08-07T23:01:58.846Z,4.97
2017-08-07T23:04:26.281Z,4.90
2017-08-07T23:06:54.496Z,4.43
2017-08-07T23:09:21.945Z,5.10
2017-08-07T23:11:49.386Z,5.23
2017-08-07T23:14:16.815Z,4.30
2017-08-07T23:16:44.275Z,4.53
2017-08-07T23:19:12.500Z,4.63
2017-08-07T23:21:39.973Z,4.70
2017-08-07T23:24:07.438Z,4.77
2017-08-07T23:26:34.876Z,4.60
2017-08-07T23:29:02.330Z,4.63
2017-08-07T23:31:29.781Z,4.33
2017-08-07T23:33:57.255Z,4.30
2017-08-07T23:36:24.712Z,4.60
2017-08-07T23:38:52.295Z,4.40
2017-08-07T23:41:19.760Z,4.70
2017-08-07T23:43:47.228Z,4.20
2017-08-07T23:46:14.689Z,4.13
2017-08-07T23:48:42.890Z,4.30
2017-08-07T23:51:10.350Z,4.73
2017-08-07T23:53:38.559Z,3.83
2017-08-07T23:56:06.023Z,4.50
2017-08-07T23:58:33.460Z,4.40
